West Union, SC (29696)

12:23 AM EDT del 29 Marzo 2015 (GMT -0400)
West Walhalla (Near Library) KelBren | | Change Station
CLOSE
Current Station
Stazione meteo personale
Location: Walhalla, SC
Altitudine: 1060 ft
Stazioni meteo nelle vicinanze
Avvisi attivi: Freeze Warning

Alt. 1060 ft 34.76 °N, 83.07 °W | Updated 7 minutes ago

Sereno
Sereno
31.1 °F
Sembra 31 °F
N
0.0
Vento Variabile Vento da NNE

Oggi
Massima -- | Minima -- °F
--% Possibilità di precip.
Ieri
Massima -- | Minima -- °F
Precip. -- in
7:23 AM 7:50 PM
Gobba a ponente, 68% visible
Pressione 30.26 in
Visibilità 10.0 miglia
Nuvole Sereno
Raffreddamento del vento 31 °F
Punto di rugiada 18 °F
Umidità 57%
Piovosità 0.00 in
Spessore del manto nevoso Non disponibile.
Raggi UV 0 fuori da 12
Polline 8.90 fuori da 12
Qualità dell'aria Non disponibile.
Flu Activity Non disponibile.
METAR KCEU 290354Z AUTO 00000KT 10SM CLR 03/M09 A3025 RMK AO2 SLP246 T00331094

More Conditions Fewer Conditions

Pressione 30.26 in
Visibilità 10.0 miglia
Nuvole Sereno
Raffreddamento del vento 31 °F
Punto di rugiada 18 °F
Umidità 57%
Piovosità 0.00 in
Spessore del manto nevoso Non disponibile.
Raggi UV 0 fuori da 12
Polline 8.90 fuori da 12
Qualità dell'aria Non disponibile.
Flu Activity Non disponibile.
METAR KCEU 290354Z AUTO 00000KT 10SM CLR 03/M09 A3025 RMK AO2 SLP246 T00331094

More Conditions Fewer Conditions

10-Day Weather Forecast

Almanac

Astronomia

Mar. 29, 2015 Alba Tramonto
Ora attuale
Crepuscolo civile
Crepuscolo nautico
Crepuscolo astronomico
Luna
Estensione della luce visibile
Lunghezza del giorno
Tomorrow will be .
, % of the Moon is Illuminated

Gli estremi di oggi

State Highs State Lows

Community

WunderPhotos

Upload Photos

1,809,185 foto caricate!

WunderBlogs® & News

Nearby

Qualità dell'aria

  Qualità dell'aria Indice AQ Inquinante
Not available.

Profondità neve

Stazione Profondità Altitudine

Attività sismica

Città  Distanza Mag. Data & Ora
Minimo Magnitudo Mostrato è 2.5.

Temperature delle acque costiere

Località Temperatura

Stations

Stazioni meteo nelle vicinanze

Ubicazione della stazione Temp. Raffreddamento del vento Punto di rugiada Umidità Vento Precip. Alt. Aggiornato Tipo
                   
Freeze Warning
Statement as of 10:11 PM EDT del 28 Marzo 2015

... Freeze warning remains in effect until 11 am EDT Sunday...

* locations... portions of the North Carolina foothills and
Piedmont... along with far northeast Georgia... and upstate
South Carolina.

* Temperatures... lows tonight ranging from the mid teens in the
higher elevations of the mountains... to the mid 20s in the
Piedmont. By tomorrow afternoon most areas will warm into the
50s.

* Impacts... very cold temperatures will kill sensitive
vegetation that has already started to grow this season.

Precautionary/preparedness actions...

A freeze warning means sub-freezing temperatures are imminent or
highly likely. These conditions will kill crops and other
sensitive vegetation.


07